createdAt,value
2018-06-03T00:00:10.605Z,95312.73
2018-06-03T00:02:36.604Z,95309.55
2018-06-03T00:05:02.603Z,95308.72
2018-06-03T00:07:28.598Z,95313.30
2018-06-03T00:09:54.589Z,95311.92
2018-06-03T00:12:20.597Z,95313.30
2018-06-03T00:14:46.589Z,95312.09
2018-06-03T00:17:12.586Z,95304.16
2018-06-03T00:19:38.586Z,95302.98
2018-06-03T00:22:04.584Z,95293.48
2018-06-03T00:24:30.586Z,95299.80
2018-06-03T00:26:56.643Z,95300.61
2018-06-03T00:29:22.607Z,95302.00
2018-06-03T00:31:48.593Z,95301.59
2018-06-03T00:34:14.597Z,95304.36
2018-06-03T00:36:40.603Z,95310.88
2018-06-03T00:39:06.598Z,95312.27
2018-06-03T00:41:32.590Z,95313.25
2018-06-03T00:43:58.591Z,95306.91
2018-06-03T00:46:24.584Z,95304.53
2018-06-03T00:48:50.577Z,95299.61
2018-06-03T00:51:16.577Z,95296.84
2018-06-03T00:53:42.577Z,95299.20
2018-06-03T00:56:08.568Z,95297.82
2018-06-03T00:58:34.569Z,95301.36
2018-06-03T01:01:00.567Z,95295.05
2018-06-03T01:03:26.561Z,95294.64
2018-06-03T01:05:52.573Z,95292.28
2018-06-03T01:08:18.570Z,95291.48
2018-06-03T01:10:44.569Z,95293.27
2018-06-03T01:13:10.597Z,95290.09
2018-06-03T01:15:36.594Z,95290.90
2018-06-03T01:18:02.597Z,95295.80
2018-06-03T01:20:28.598Z,95295.22
2018-06-03T01:22:54.603Z,95298.57
2018-06-03T01:25:20.602Z,95307.69
2018-06-03T01:27:46.634Z,95301.74
2018-06-03T01:30:12.630Z,95300.97
2018-06-03T01:32:38.631Z,95295.43
2018-06-03T01:35:04.631Z,95290.47
2018-06-03T01:37:30.625Z,95291.85
2018-06-03T01:39:56.621Z,95296.98
2018-06-03T01:42:22.615Z,95294.05
2018-06-03T01:44:48.611Z,95287.12
2018-06-03T01:47:14.612Z,95287.70
2018-06-03T01:49:40.708Z,95286.31
2018-06-03T01:52:06.698Z,95283.55
2018-06-03T01:54:32.700Z,95281.36
2018-06-03T01:56:58.693Z,95279.97
2018-06-03T01:59:24.686Z,95281.77
2018-06-03T02:01:50.690Z,95283.14
2018-06-03T02:04:16.688Z,95271.88
2018-06-03T02:06:42.685Z,95282.34
2018-06-03T02:09:08.687Z,95283.72
2018-06-03T02:11:34.693Z,95279.16
2018-06-03T02:14:00.686Z,95280.55
2018-06-03T02:16:26.689Z,95282.34
2018-06-03T02:18:52.680Z,95281.94
2018-06-03T02:21:18.677Z,95284.33
2018-06-03T02:23:44.674Z,95280.17
2018-06-03T02:26:10.671Z,95278.39
2018-06-03T02:28:36.665Z,95280.55
2018-06-03T02:31:02.666Z,95277.58
2018-06-03T02:33:28.663Z,95281.16
2018-06-03T02:35:54.665Z,95283.92
2018-06-03T02:38:20.663Z,95284.91
2018-06-03T02:40:46.679Z,95285.89
2018-06-03T02:43:12.724Z,95286.06
2018-06-03T02:45:38.720Z,95288.83
2018-06-03T02:48:04.719Z,95288.25
2018-06-03T02:50:30.801Z,95282.31
2018-06-03T02:52:56.813Z,95277.75
2018-06-03T02:55:22.806Z,95287.84
2018-06-03T02:57:48.792Z,95293.21
2018-06-03T03:00:14.788Z,95286.86
2018-06-03T03:02:40.780Z,95288.25
2018-06-03T03:05:06.780Z,95283.70
2018-06-03T03:07:32.774Z,95287.45
2018-06-03T03:09:58.776Z,95283.90
2018-06-03T03:12:24.781Z,95292.00
2018-06-03T03:14:50.776Z,95288.83
2018-06-03T03:17:16.773Z,95284.30
2018-06-03T03:19:42.770Z,95279.14
2018-06-03T03:22:08.761Z,95277.75
2018-06-03T03:24:34.763Z,95279.14
2018-06-03T03:27:00.804Z,95283.30
2018-06-03T03:29:26.798Z,95280.32
2018-06-03T03:31:52.794Z,95283.90
2018-06-03T03:34:18.788Z,95282.11
2018-06-03T03:36:44.789Z,95282.11
2018-06-03T03:39:10.790Z,95279.75
2018-06-03T03:41:36.814Z,95276.17
2018-06-03T03:44:02.854Z,95281.70
2018-06-03T03:46:28.852Z,95284.47
2018-06-03T03:48:54.864Z,95290.42
2018-06-03T03:51:20.857Z,95295.55
2018-06-03T03:53:46.860Z,95290.02
2018-06-03T03:56:12.898Z,95290.99
2018-06-03T03:58:38.896Z,95292.78
2018-06-03T04:01:04.899Z,95282.69
2018-06-03T04:03:30.891Z,95290.42
2018-06-03T04:05:56.896Z,95286.46
2018-06-03T04:08:22.899Z,95281.91
2018-06-03T04:10:48.906Z,95282.54
2018-06-03T04:13:14.942Z,95285.89
2018-06-03T04:15:40.893Z,95292.63
2018-06-03T04:18:06.897Z,95298.37
2018-06-03T04:20:32.899Z,95299.38
2018-06-03T04:22:58.941Z,95296.61
2018-06-03T04:25:25.020Z,95298.59
2018-06-03T04:27:51.096Z,95297.45
2018-06-03T04:30:17.093Z,95293.46
2018-06-03T04:32:43.097Z,95294.84
2018-06-03T04:35:09.411Z,95292.16
2018-06-03T04:37:35.401Z,95289.63
2018-06-03T04:40:01.403Z,95289.80
2018-06-03T04:42:27.401Z,95296.74
2018-06-03T04:44:53.400Z,95289.05
2018-06-03T04:47:19.476Z,95298.73
2018-06-03T04:49:45.641Z,95299.91
2018-06-03T04:52:11.746Z,95305.05
2018-06-03T04:54:37.747Z,95297.95
2018-06-03T04:57:03.742Z,95292.02
2018-06-03T04:59:29.738Z,95299.52
2018-06-03T05:01:55.739Z,95303.69
2018-06-03T05:04:21.745Z,95299.34
2018-06-03T05:06:47.768Z,95298.94
2018-06-03T05:09:13.772Z,95287.45
2018-06-03T05:11:39.765Z,95293.83
2018-06-03T05:14:05.763Z,95294.61
2018-06-03T05:16:31.762Z,95297.58
2018-06-03T05:18:57.757Z,95308.91
2018-06-03T05:21:23.787Z,95303.55
2018-06-03T05:23:49.781Z,95302.97
2018-06-03T05:26:15.778Z,95297.43
2018-06-03T05:28:41.783Z,95304.92
2018-06-03T05:31:07.809Z,95303.66
2018-06-03T05:33:33.870Z,95297.38
2018-06-03T05:35:59.905Z,95302.69
2018-06-03T05:38:25.917Z,95301.80
2018-06-03T05:40:51.912Z,95299.28
2018-06-03T05:43:17.920Z,95304.22
2018-06-03T05:45:43.921Z,95300.67
2018-06-03T05:48:09.914Z,95306.38
2018-06-03T05:50:35.905Z,95311.69
2018-06-03T05:53:01.905Z,95306.41
2018-06-03T05:55:27.916Z,95305.66
2018-06-03T05:57:53.921Z,95303.47
2018-06-03T06:00:19.959Z,95302.66
2018-06-03T06:02:45.936Z,95302.48
2018-06-03T06:05:11.938Z,95301.50
2018-06-03T06:07:37.934Z,95308.02
2018-06-03T06:10:03.936Z,95311.39
2018-06-03T06:12:29.937Z,95304.27
2018-06-03T06:14:55.939Z,95309.00
2018-06-03T06:17:21.938Z,95312.92
2018-06-03T06:19:47.944Z,95309.33
2018-06-03T06:22:13.948Z,95306.73
2018-06-03T06:24:39.955Z,95308.31
2018-06-03T06:27:05.989Z,95305.60
2018-06-03T06:29:32.026Z,95306.78
2018-06-03T06:31:58.021Z,95303.61
2018-06-03T06:34:25.038Z,95298.08
2018-06-03T06:36:51.003Z,95295.05
2018-06-03T06:39:17.009Z,95294.64
2018-06-03T06:41:43.035Z,95292.48
2018-06-03T06:44:09.027Z,95292.28
2018-06-03T06:46:35.028Z,95292.28
2018-06-03T06:49:01.067Z,95290.90
2018-06-03T06:51:27.080Z,95292.86
2018-06-03T06:53:53.077Z,95293.44
2018-06-03T06:56:19.120Z,95288.53
2018-06-03T06:58:45.123Z,95291.56
2018-06-03T07:01:11.126Z,95285.04
2018-06-03T07:03:37.121Z,95287.00
2018-06-03T07:06:03.122Z,95284.38
2018-06-03T07:08:29.149Z,95280.41
2018-06-03T07:10:55.149Z,95289.95
2018-06-03T07:13:21.128Z,95285.77
2018-06-03T07:15:47.111Z,95287.92
2018-06-03T07:18:13.129Z,95281.98
2018-06-03T07:20:39.123Z,95283.20
2018-06-03T07:23:05.161Z,95281.41
2018-06-03T07:25:31.135Z,95283.20
2018-06-03T07:27:57.112Z,95281.87
2018-06-03T07:30:23.109Z,95276.53
2018-06-03T07:32:49.092Z,95276.76
2018-06-03T07:35:15.107Z,95274.19
2018-06-03T07:37:41.104Z,95274.02
2018-06-03T07:40:07.088Z,95280.13
2018-06-03T07:42:33.067Z,95279.58
2018-06-03T07:44:59.109Z,95276.64
2018-06-03T07:47:25.042Z,95274.64
2018-06-03T07:49:51.028Z,95277.41
2018-06-03T07:52:17.008Z,95276.03
2018-06-03T07:54:43.005Z,95275.87
2018-06-03T07:57:08.990Z,95281.02
2018-06-03T07:59:34.982Z,95275.87
2018-06-03T08:02:00.993Z,95275.09
2018-06-03T08:04:26.978Z,95273.71
2018-06-03T08:06:52.953Z,95270.13
2018-06-03T08:09:18.936Z,95265.83
2018-06-03T08:11:44.925Z,95265.43
2018-06-03T08:14:10.942Z,95258.77
2018-06-03T08:16:36.960Z,95250.08
2018-06-03T08:19:02.936Z,95257.19
2018-06-03T08:21:28.914Z,95245.53
2018-06-03T08:23:54.984Z,95246.92
2018-06-03T08:26:20.974Z,95245.16
2018-06-03T08:28:46.960Z,95245.20
2018-06-03T08:31:12.938Z,95250.36
2018-06-03T08:33:38.963Z,95243.48
2018-06-03T08:36:04.970Z,95239.94
2018-06-03T08:38:30.956Z,95239.70
2018-06-03T08:40:56.944Z,95230.80
2018-06-03T08:43:22.952Z,95229.86
2018-06-03T08:45:48.934Z,95236.20
2018-06-03T08:48:19.151Z,95236.77
2018-06-03T08:55:51.183Z,95218.48
2018-06-03T08:58:17.186Z,95213.33
2018-06-03T09:00:43.163Z,95216.13
2018-06-03T09:03:09.255Z,95217.71
2018-06-03T09:05:35.247Z,95210.36
2018-06-03T09:08:01.228Z,95211.34
2018-06-03T09:10:27.240Z,95203.84
2018-06-03T09:12:53.218Z,95200.47
2018-06-03T09:15:19.205Z,95201.27
2018-06-03T09:17:45.224Z,95203.64
2018-06-03T09:20:11.210Z,95202.25
2018-06-03T09:22:37.193Z,95200.29
2018-06-03T09:25:03.313Z,95194.92
2018-06-03T09:27:29.289Z,95186.44
2018-06-03T09:29:55.283Z,95190.59
2018-06-03T09:32:21.274Z,95183.27
2018-06-03T09:34:47.250Z,95181.70
2018-06-03T09:37:13.243Z,95175.94
2018-06-03T09:39:39.220Z,95178.92
2018-06-03T09:42:05.235Z,95180.12
2018-06-03T09:44:31.236Z,95178.95
2018-06-03T09:46:57.216Z,95171.41
2018-06-03T09:49:23.195Z,95169.06
2018-06-03T09:51:49.188Z,95164.73
2018-06-03T09:54:15.168Z,95163.54
2018-06-03T09:56:41.181Z,95169.50
2018-06-03T09:59:07.163Z,95163.00
2018-06-03T10:01:33.146Z,95158.62
2018-06-03T10:03:59.122Z,95158.44
2018-06-03T10:06:25.112Z,95156.27
2018-06-03T10:08:51.090Z,95154.91
2018-06-03T10:11:17.182Z,95170.75
2018-06-03T10:13:43.165Z,95160.43
2018-06-03T10:16:09.201Z,95158.08
2018-06-03T10:18:35.176Z,95149.58
2018-06-03T10:21:01.165Z,95154.91
2018-06-03T10:23:27.144Z,95147.58
2018-06-03T10:25:53.127Z,95147.80
2018-06-03T10:28:19.106Z,95146.25
2018-06-03T10:30:45.083Z,95143.63
2018-06-03T10:33:11.070Z,95134.34
2018-06-03T10:35:37.078Z,95131.61
2018-06-03T10:38:03.077Z,95134.59
2018-06-03T10:40:29.053Z,95139.75
2018-06-03T10:42:55.043Z,95131.42
2018-06-03T10:45:21.032Z,95135.20
2018-06-03T10:47:47.019Z,95129.28
2018-06-03T10:50:13.011Z,95115.45
2018-06-03T10:52:38.991Z,95120.20
2018-06-03T10:55:04.989Z,95145.13
2018-06-03T10:57:30.984Z,95150.27
2018-06-03T10:59:57.062Z,95161.52
2018-06-03T11:02:22.984Z,95153.20
2018-06-03T11:04:48.963Z,95148.41
2018-06-03T11:07:14.946Z,95141.86
2018-06-03T11:09:40.931Z,95148.00
2018-06-03T11:12:06.907Z,95132.39
2018-06-03T11:14:32.888Z,95127.44
2018-06-03T11:16:58.867Z,95127.44
2018-06-03T11:19:24.852Z,95128.41
2018-06-03T11:21:50.831Z,95133.71
2018-06-03T11:24:16.818Z,95140.44
2018-06-03T11:26:42.806Z,95137.84
2018-06-03T11:29:08.812Z,95141.42
2018-06-03T11:31:34.841Z,95129.55
2018-06-03T11:34:00.785Z,95132.77
2018-06-03T11:36:26.766Z,95134.36
2018-06-03T11:38:52.748Z,95131.78
2018-06-03T11:41:18.774Z,95131.98
2018-06-03T11:43:44.800Z,95131.20
2018-06-03T11:46:10.783Z,95125.28
2018-06-03T11:48:36.773Z,95123.91
2018-06-03T11:51:02.754Z,95132.80
2018-06-03T11:53:28.754Z,95131.64
2018-06-03T11:55:54.867Z,95132.24
2018-06-03T11:58:20.900Z,95130.28
2018-06-03T12:00:46.921Z,95125.14
2018-06-03T12:03:12.868Z,95120.60
2018-06-03T12:05:38.854Z,95117.42
2018-06-03T12:08:04.844Z,95112.06
2018-06-03T12:10:30.822Z,95112.05
2018-06-03T12:12:56.831Z,95107.09
2018-06-03T12:15:22.820Z,95102.72
2018-06-03T12:17:48.790Z,95096.02
2018-06-03T12:20:14.786Z,95078.59
2018-06-03T12:22:40.813Z,95076.40
2018-06-03T12:25:06.834Z,95080.16
2018-06-03T12:27:32.816Z,95085.32
2018-06-03T12:29:58.801Z,95085.48
2018-06-03T12:32:24.778Z,95093.97
2018-06-03T12:34:50.773Z,95093.21
2018-06-03T12:37:16.761Z,95093.39
2018-06-03T12:39:42.737Z,95085.25
2018-06-03T12:42:08.819Z,95082.69
2018-06-03T12:44:34.821Z,95081.48
2018-06-03T12:47:00.817Z,95076.57
2018-06-03T12:49:26.806Z,95070.63
2018-06-03T12:51:52.799Z,95065.48
2018-06-03T12:54:18.833Z,95054.58
2018-06-03T12:56:44.841Z,95052.00
2018-06-03T12:59:10.819Z,95058.92
2018-06-03T13:01:36.807Z,95057.17
2018-06-03T13:04:02.786Z,95063.86
2018-06-03T13:06:28.780Z,95078.28
2018-06-03T13:08:54.742Z,95089.18
2018-06-03T13:11:20.721Z,95079.27
2018-06-03T13:13:46.708Z,95091.51
2018-06-03T13:16:12.688Z,95097.88
2018-06-03T13:18:38.670Z,95099.06
2018-06-03T13:21:04.658Z,95102.66
2018-06-03T13:23:30.657Z,95106.38
2018-06-03T13:25:56.648Z,95103.24
2018-06-03T13:28:22.649Z,95103.84
2018-06-03T13:30:48.646Z,95102.05
2018-06-03T13:33:14.628Z,95107.56
2018-06-03T13:35:40.621Z,95119.45
2018-06-03T13:38:06.610Z,95131.57
2018-06-03T13:40:32.601Z,95128.17
2018-06-03T13:42:58.583Z,95128.77
2018-06-03T13:45:24.570Z,95127.15
2018-06-03T13:47:50.560Z,95130.30
2018-06-03T13:50:16.542Z,95131.70
2018-06-03T13:52:42.528Z,95131.09
2018-06-03T13:55:08.517Z,95127.36
2018-06-03T13:57:34.509Z,95122.98
2018-06-03T14:00:00.490Z,95115.45
2018-06-03T14:02:26.507Z,95111.45
2018-06-03T14:04:52.496Z,95108.13
2018-06-03T14:07:18.475Z,95109.51
2018-06-03T14:09:44.462Z,95104.78
2018-06-03T14:12:10.452Z,95106.80
2018-06-03T14:14:36.437Z,95094.93
2018-06-03T14:17:02.428Z,95092.00
2018-06-03T14:19:28.531Z,95084.63
2018-06-03T14:21:54.492Z,95085.39
2018-06-03T14:24:20.480Z,95081.80
2018-06-03T14:26:46.479Z,95080.64
2018-06-03T14:29:12.456Z,95080.02
2018-06-03T14:31:38.479Z,95072.68
2018-06-03T14:34:04.488Z,95066.14
2018-06-03T14:36:30.470Z,95052.10
2018-06-03T14:38:56.445Z,95045.76
2018-06-03T14:41:22.427Z,95036.44
2018-06-03T14:43:48.441Z,95036.03
2018-06-03T14:46:14.394Z,95026.72
2018-06-03T14:48:40.372Z,95018.47
2018-06-03T14:51:06.415Z,95012.58
2018-06-03T14:53:32.345Z,95008.47
2018-06-03T14:55:58.336Z,94995.03
2018-06-03T14:58:24.265Z,94992.28
2018-06-03T15:00:50.267Z,94983.98
2018-06-03T15:03:16.249Z,94979.05
2018-06-03T15:05:42.235Z,94977.47
2018-06-03T15:08:08.244Z,94975.28
2018-06-03T15:10:34.296Z,94970.14
2018-06-03T15:13:00.281Z,94963.03
2018-06-03T15:15:26.263Z,94963.44
2018-06-03T15:17:52.294Z,94967.98
2018-06-03T15:20:18.374Z,94970.56
2018-06-03T15:22:44.316Z,94971.36
2018-06-03T15:25:10.303Z,94985.97
2018-06-03T15:27:36.328Z,94992.13
2018-06-03T15:30:02.323Z,94994.94
2018-06-03T15:32:28.431Z,95005.02
2018-06-03T15:34:54.422Z,95007.58
2018-06-03T15:37:20.421Z,95017.27
2018-06-03T15:39:46.482Z,95022.02
2018-06-03T15:42:12.476Z,95026.58
2018-06-03T15:44:38.463Z,95022.81
2018-06-03T15:47:04.455Z,95021.43
2018-06-03T15:49:30.473Z,95029.16
2018-06-03T15:51:56.542Z,95025.41
2018-06-03T15:54:22.629Z,95032.11
2018-06-03T15:56:48.625Z,95031.70
2018-06-03T15:59:14.649Z,95028.94
2018-06-03T16:01:40.606Z,95029.95
2018-06-03T16:04:06.603Z,95024.42
2018-06-03T16:06:32.606Z,95025.41
2018-06-03T16:08:58.617Z,95022.04
2018-06-03T16:11:24.623Z,95018.52
2018-06-03T16:13:50.629Z,95018.30
2018-06-03T16:16:16.627Z,95027.82
2018-06-03T16:18:42.620Z,95020.67
2018-06-03T16:21:08.597Z,95021.45
2018-06-03T16:23:34.588Z,95016.33
2018-06-03T16:26:00.669Z,95019.27
2018-06-03T16:28:26.632Z,95005.82
2018-06-03T16:30:52.624Z,95009.37
2018-06-03T16:33:18.666Z,95010.36
2018-06-03T16:35:44.761Z,95012.31
2018-06-03T16:38:10.881Z,95009.75
2018-06-03T16:40:36.870Z,95011.72
2018-06-03T16:43:02.850Z,95013.91
2018-06-03T16:45:28.835Z,95018.88
2018-06-03T16:47:54.828Z,95026.02
2018-06-03T16:50:20.810Z,95023.07
2018-06-03T16:52:46.796Z,95026.83
2018-06-03T16:55:12.836Z,95034.91
2018-06-03T16:57:38.858Z,95043.05
2018-06-03T17:00:04.918Z,95042.45
2018-06-03T17:02:30.918Z,95044.63
2018-06-03T17:04:56.919Z,95054.53
2018-06-03T17:07:22.945Z,95059.25
2018-06-03T17:09:48.939Z,95060.22
2018-06-03T17:12:14.930Z,95050.31
2018-06-03T17:14:40.954Z,95057.05
2018-06-03T17:17:06.936Z,95056.86
2018-06-03T17:19:33.095Z,95058.83
2018-06-03T17:21:59.088Z,95054.49
2018-06-03T17:24:26.581Z,95052.91
2018-06-03T17:26:52.839Z,95056.08
2018-06-03T17:29:18.843Z,95054.29
2018-06-03T17:31:44.866Z,95049.73
2018-06-03T17:34:11.050Z,95044.81
2018-06-03T17:36:37.092Z,95045.39
2018-06-03T17:39:03.069Z,95048.56
2018-06-03T17:41:29.150Z,95048.75
2018-06-03T17:43:55.147Z,95043.59
2018-06-03T17:46:21.154Z,95036.88
2018-06-03T17:48:49.374Z,95038.42
2018-06-03T17:51:13.199Z,95044.55
2018-06-03T17:53:39.551Z,95038.02
2018-06-03T17:56:05.557Z,95037.81
2018-06-03T17:58:31.593Z,95041.34
2018-06-03T18:00:57.575Z,95043.14
2018-06-03T18:03:23.581Z,95043.14
2018-06-03T18:05:49.554Z,95043.95
2018-06-03T18:08:15.558Z,95048.68
2018-06-03T18:10:41.589Z,95041.36
2018-06-03T18:13:07.611Z,95035.80
2018-06-03T18:15:33.612Z,95028.52
2018-06-03T18:17:59.610Z,95029.31
2018-06-03T18:20:25.608Z,95030.30
2018-06-03T18:22:51.645Z,95021.40
2018-06-03T18:25:17.862Z,95015.44
2018-06-03T18:27:43.816Z,95012.49
2018-06-03T18:30:09.840Z,95007.75
2018-06-03T18:32:35.822Z,95001.61
2018-06-03T18:35:01.840Z,94998.06
2018-06-03T18:37:27.833Z,95001.02
2018-06-03T18:39:53.811Z,95000.43
2018-06-03T18:42:19.834Z,94995.89
2018-06-03T18:44:46.166Z,94997.27
2018-06-03T18:47:12.473Z,95000.45
2018-06-03T18:49:38.840Z,94998.66
2018-06-03T18:52:07.721Z,94998.82
2018-06-03T18:54:33.898Z,94994.65
2018-06-03T18:57:00.025Z,94997.41
2018-06-03T18:59:26.158Z,95002.77
2018-06-03T19:01:52.000Z,95008.89
2018-06-03T19:04:18.516Z,95011.06
2018-06-03T19:06:44.466Z,95013.20
2018-06-03T19:09:14.520Z,95018.14
2018-06-03T19:11:40.662Z,95024.09
2018-06-03T19:14:07.278Z,95028.23
2018-06-03T19:16:33.287Z,95032.20
2018-06-03T19:18:59.321Z,95031.19
2018-06-03T19:21:25.346Z,95032.99
2018-06-03T19:23:52.243Z,95034.61
2018-06-03T19:26:18.343Z,95034.59
2018-06-03T19:28:44.384Z,95043.28
2018-06-03T19:31:13.060Z,95040.52
2018-06-03T19:33:39.070Z,95042.90
2018-06-03T19:36:05.138Z,95048.02
2018-06-03T19:38:31.175Z,95049.41
2018-06-03T19:40:57.911Z,95047.63
2018-06-03T19:43:23.897Z,95054.16
2018-06-03T19:45:49.886Z,95055.94
2018-06-03T19:48:15.871Z,95063.66
2018-06-03T19:50:42.095Z,95074.33
2018-06-03T19:53:08.592Z,95071.75
2018-06-03T19:55:34.581Z,95072.38
2018-06-03T19:58:00.561Z,95069.00
2018-06-03T20:00:26.543Z,95077.14
2018-06-03T20:02:52.526Z,95060.92
2018-06-03T20:05:18.514Z,95062.08
2018-06-03T20:07:44.526Z,95062.08
2018-06-03T20:10:10.583Z,95062.08
2018-06-03T20:12:36.577Z,95068.42
2018-06-03T20:15:02.544Z,95072.75
2018-06-03T20:17:28.709Z,95077.71
2018-06-03T20:19:54.695Z,95073.16
2018-06-03T20:22:20.801Z,95075.34
2018-06-03T20:24:47.105Z,95075.73
2018-06-03T20:27:13.118Z,95085.59
2018-06-03T20:29:39.158Z,95081.43
2018-06-03T20:32:05.153Z,95085.00
2018-06-03T20:34:31.199Z,95083.22
2018-06-03T20:36:57.179Z,95085.98
2018-06-03T20:39:23.175Z,95088.36
2018-06-03T20:41:49.175Z,95088.97
2018-06-03T20:44:15.165Z,95091.13
2018-06-03T20:46:41.253Z,95087.95
2018-06-03T20:49:07.337Z,95085.19
2018-06-03T20:51:33.285Z,95091.73
2018-06-03T20:53:59.263Z,95097.45
2018-06-03T20:56:25.249Z,95105.16
2018-06-03T20:58:51.231Z,95098.23
2018-06-03T21:01:17.217Z,95096.45
2018-06-03T21:03:43.211Z,95095.24
2018-06-03T21:06:09.195Z,95098.99
2018-06-03T21:08:35.175Z,95089.91
2018-06-03T21:11:01.165Z,95081.78
2018-06-03T21:13:27.147Z,95072.66
2018-06-03T21:15:53.126Z,95067.11
2018-06-03T21:18:19.112Z,95057.62
2018-06-03T21:20:45.096Z,95067.11
2018-06-03T21:23:11.084Z,95067.89
2018-06-03T21:25:37.097Z,95062.76
2018-06-03T21:28:03.081Z,95059.00
2018-06-03T21:30:29.065Z,95061.76
2018-06-03T21:32:55.050Z,95053.63
2018-06-03T21:35:21.030Z,95059.38
2018-06-03T21:37:47.017Z,95058.97
2018-06-03T21:40:13.003Z,95061.34
2018-06-03T21:42:38.994Z,95056.59
2018-06-03T21:45:04.964Z,95052.80
2018-06-03T21:47:30.942Z,95049.27
2018-06-03T21:49:56.928Z,95040.15
2018-06-03T21:52:22.911Z,95046.28
2018-06-03T21:54:48.894Z,95034.20
2018-06-03T21:57:14.880Z,95042.34
2018-06-03T21:59:40.863Z,95038.77
2018-06-03T22:02:06.856Z,95030.27
2018-06-03T22:04:32.834Z,95028.08
2018-06-03T22:06:58.825Z,95027.09
2018-06-03T22:09:24.813Z,95030.84
2018-06-03T22:11:50.794Z,95040.71
2018-06-03T22:14:16.780Z,95031.42
2018-06-03T22:16:42.798Z,95036.56
2018-06-03T22:19:08.784Z,95030.44
2018-06-03T22:21:34.754Z,95029.23
2018-06-03T22:24:00.747Z,95024.30
2018-06-03T22:26:26.734Z,95025.86
2018-06-03T22:28:52.721Z,95026.27
2018-06-03T22:31:18.709Z,95032.38
2018-06-03T22:33:44.689Z,95028.84
2018-06-03T22:36:10.663Z,95031.00
2018-06-03T22:38:36.653Z,95032.59
2018-06-03T22:41:02.689Z,95030.41
2018-06-03T22:43:28.661Z,95026.66
2018-06-03T22:45:54.670Z,95023.48
2018-06-03T22:48:20.653Z,95027.23
2018-06-03T22:50:46.643Z,95023.66
2018-06-03T22:53:12.623Z,95027.61
2018-06-03T22:55:38.616Z,95032.77
2018-06-03T22:58:04.600Z,95027.44
2018-06-03T23:00:30.590Z,95028.83
2018-06-03T23:02:56.613Z,95023.06
2018-06-03T23:05:22.647Z,95023.06
2018-06-03T23:07:48.598Z,95015.16
2018-06-03T23:10:14.584Z,95013.58
2018-06-03T23:12:40.573Z,95009.42
2018-06-03T23:15:06.654Z,95009.80
2018-06-03T23:17:32.650Z,95003.48
2018-06-03T23:19:58.629Z,95003.08
2018-06-03T23:22:24.621Z,94995.77
2018-06-03T23:24:50.604Z,94997.72
2018-06-03T23:32:26.821Z,94991.78
2018-06-03T23:47:51.837Z,94989.72
2018-06-03T23:50:17.829Z,94988.55
2018-06-03T23:52:43.810Z,94991.17
2018-06-03T23:55:09.816Z,94982.03
2018-06-03T23:57:35.795Z,94990.19
